Terminal Aerodrome Forecast
Issued by NWS Jackson, MS

Home | Current Version | Previous Version | Text Only | Print | Product List | Glossary On
Versions: 1 2 3 4 5 6 7 8 9 10 11 12 13 14
871
FTUS44 KJAN 221743
TAFMEI
TAF
KMEI 221743Z 2218/2318 36007KT P6SM OVC015
     FM222100 01006KT P6SM SCT030
     FM230400 02003KT 3SM BR SKC
     FM230600 VRB04KT 1SM BR SCT003 OVC007
     FM230800 00000KT 1/4SM FG OVC003=

USA.gov is the U.S. government's official web portal to all federal, state and local government web resources and services.